Campanya meteocatpedra

Dades EMA Santa Coloma de Farners

?
?
Resum diari 22:30 TU
Dades diàries de l'estació meteorològica
Temperatura mitjana 23.4 °C
Temperatura màxima 30.7 °C 10:56 TU
Temperatura mínima 15.2 °C 1:53 TU
Humitat relativa mitjana 56%
Precipitació acumulada 0.0 mm
Ratxa màxima del vent (10 m) 29.5 km/h - 137º 12:33 TU
Irradiació solar global 29.1 MJ/m2

El tram horari està expressat en Temps Universal (TU). Cal sumar una hora en horari d'hivern i dues en horari d'estiu per passar a l'hora oficial.

Santa Coloma de Farners

Metadades estació meteorol´gica
Municipi Santa Coloma de Farners
Comarca Selva
Altitud 162 m
Data alta 26.03.2013
Estat actual Operativa
Dades de període
Període
TU
TM
°C
TX
°C
TN
°C
HRM
%
PPT
mm
VVM (10 m)
km/h
DVM (10 m)
graus
VVX (10 m)
km/h
RS
W/m2
00:00 - 00:30 16.5 16.6 16.4 83 0.0 4.7 309 7.9 0
00:30 - 01:00 16.6 16.8 16.3 83 0.0 5.0 324 8.3 0
01:00 - 01:30 16.6 16.8 16.1 83 0.0 3.2 293 5.8 0
01:30 - 02:00 15.5 16.0 15.2 86 0.0 5.8 315 8.6 0
02:00 - 02:30 15.8 16.0 15.6 86 0.0 5.4 311 9.4 0
02:30 - 03:00 15.7 15.9 15.4 86 0.0 4.3 309 8.6 0
03:00 - 03:30 16.3 16.6 15.8 83 0.0 5.0 296 9.4 0
03:30 - 04:00 16.6 16.7 16.6 80 0.0 5.4 299 9.4 0
04:00 - 04:30 16.6 16.9 16.4 80 0.0 4.7 301 10.4 1
04:30 - 05:00 17.1 17.2 16.8 77 0.0 3.2 259 8.3 29
05:00 - 05:30 17.5 18.0 16.9 76 0.0 3.2 232 9.0 93
05:30 - 06:00 18.5 19.1 17.9 74 0.0 2.5 115 5.4 177
06:00 - 06:30 18.9 19.6 18.4 73 0.0 3.2 119 6.5 272
06:30 - 07:00 20.5 21.3 19.6 68 0.0 1.8 110 5.4 361
07:00 - 07:30 22.6 23.6 21.1 61 0.0 3.2 118 6.5 466
07:30 - 08:00 24.7 25.4 23.3 54 0.0 4.3 127 10.1 548
08:00 - 08:30 26.1 27.0 25.2 47 0.0 6.1 124 10.8 644
08:30 - 09:00 27.9 28.4 27.0 38 0.0 7.2 127 15.8 723
09:00 - 09:30 28.7 29.1 28.3 36 0.0 8.6 143 16.9 792
09:30 - 10:00 29.3 29.7 29.1 36 0.0 9.4 120 17.6 852
10:00 - 10:30 29.8 30.3 29.4 36 0.0 10.1 115 22.0 898
10:30 - 11:00 30.4 30.7 30.0 37 0.0 11.2 152 24.5 925
11:00 - 11:30 30.2 30.6 29.9 37 0.0 11.2 161 22.3 945
11:30 - 12:00 29.9 30.2 29.6 38 0.0 13.0 153 27.0 951
12:00 - 12:30 29.4 29.8 29.2 38 0.0 14.8 153 26.3 943
12:30 - 13:00 29.3 29.8 28.8 38 0.0 14.8 154 29.5 919
13:00 - 13:30 29.5 29.8 29.1 37 0.0 14.4 154 28.4 884
13:30 - 14:00 28.9 29.5 28.5 38 0.0 16.9 140 28.4 841
14:00 - 14:30 28.7 28.9 28.4 37 0.0 14.0 141 28.4 781
14:30 - 15:00 28.5 28.7 28.3 39 0.0 14.8 135 27.4 709
15:00 - 15:30 28.5 29.0 28.0 40 0.0 11.9 134 22.0 624
15:30 - 16:00 28.5 28.7 28.1 41 0.0 9.7 128 21.2 536
16:00 - 16:30 28.5 28.7 28.2 40 0.0 8.6 142 16.2 443
16:30 - 17:00 28.3 28.6 27.9 38 0.0 9.0 134 17.6 346
17:00 - 17:30 27.5 28.0 27.2 40 0.0 9.4 143 17.6 258
17:30 - 18:00 26.7 27.0 26.0 42 0.0 8.3 143 17.3 166
18:00 - 18:30 25.4 26.0 24.8 44 0.0 10.4 135 18.0 64
18:30 - 19:00 24.2 24.7 23.8 47 0.0 8.6 133 16.6 16
19:00 - 19:30 23.2 23.8 22.6 49 0.0 5.0 153 11.9 1
19:30 - 20:00 21.5 22.5 21.0 59 0.0 4.7 325 9.4 0
20:00 - 20:30 20.5 21.1 19.9 64 0.0 3.2 314 7.6 0
20:30 - 21:00 20.0 20.1 19.9 65 0.0 5.0 323 9.0 0
21:00 - 21:30 19.7 20.2 19.4 66 0.0 4.0 310 6.1 0
21:30 - 22:00 19.1 19.4 18.8 68 0.0 2.5 284 4.7 0
22:00 - 22:30 18.5 18.7 18.3 71 0.0 4.3 299 7.2 0
22:30 - 23:00 (s/d) (s/d) (s/d) (s/d) (s/d) (s/d) (s/d) (s/d) (s/d)

Les dades en taronja només han passat un control de qualitat automàtic. Resta pendent la seva validació definitiva.